createdAt,value
2018-02-09T00:00:55.340Z,37.60
2018-02-09T00:03:22.809Z,40.17
2018-02-09T00:05:50.563Z,39.28
2018-02-09T00:08:18.249Z,44.80
2018-02-09T00:10:45.790Z,44.97
2018-02-09T00:13:13.275Z,47.33
2018-02-09T00:15:41.024Z,47.40
2018-02-09T00:18:08.488Z,53.33
2018-02-09T00:20:36.175Z,38.90
2018-02-09T00:23:03.773Z,42.62
2018-02-09T00:25:31.459Z,41.63
2018-02-09T00:27:59.223Z,46.55
2018-02-09T00:30:26.911Z,41.97
2018-02-09T00:32:54.400Z,36.97
2018-02-09T00:35:21.864Z,40.72
2018-02-09T00:37:49.323Z,42.47
2018-02-09T00:40:16.796Z,44.13
2018-02-09T00:42:44.279Z,40.22
2018-02-09T00:45:11.751Z,44.50
2018-02-09T00:47:39.499Z,47.40
2018-02-09T00:50:07.176Z,53.78
2018-02-09T00:52:34.649Z,42.90
2018-02-09T00:55:02.108Z,64.35
2018-02-09T00:57:29.596Z,39.45
2018-02-09T00:59:57.059Z,39.70
2018-02-09T01:02:24.524Z,53.45
2018-02-09T01:04:51.991Z,39.72
2018-02-09T01:07:19.784Z,59.75
2018-02-09T01:09:47.484Z,43.83
2018-02-09T01:12:15.152Z,48.92
2018-02-09T01:14:42.764Z,57.15
2018-02-09T01:17:10.248Z,46.80
2018-02-09T01:19:37.712Z,36.67
2018-02-09T01:22:05.175Z,38.15
2018-02-09T01:24:32.908Z,47.62
2018-02-09T01:27:00.364Z,40.60
2018-02-09T01:29:28.123Z,50.05
2018-02-09T01:31:55.812Z,40.38
2018-02-09T01:34:23.415Z,49.60
2018-02-09T01:36:50.880Z,50.80
2018-02-09T01:39:18.355Z,41.95
2018-02-09T01:41:45.836Z,47.30
2018-02-09T01:44:13.302Z,42.03
2018-02-09T01:46:41.563Z,39.55
2018-02-09T01:49:09.183Z,50.05
2018-02-09T01:51:36.784Z,46.53
2018-02-09T01:54:04.248Z,39.85
2018-02-09T01:56:32.004Z,43.42
2018-02-09T01:58:59.507Z,42.42
2018-02-09T02:01:27.143Z,50.65
2018-02-09T02:03:54.676Z,37.80
2018-02-09T02:06:22.148Z,43.38
2018-02-09T02:08:49.908Z,38.38
2018-02-09T02:11:17.368Z,58.95
2018-02-09T02:13:45.127Z,46.90
2018-02-09T02:16:12.707Z,44.28
2018-02-09T02:18:40.940Z,40.90
2018-02-09T02:21:08.424Z,34.13
2018-02-09T02:23:36.196Z,48.13
2018-02-09T02:26:03.653Z,35.70
2018-02-09T02:28:31.416Z,37.53
2018-02-09T02:30:58.880Z,42.42
2018-02-09T02:33:26.340Z,43.00
2018-02-09T02:35:54.096Z,36.70
2018-02-09T02:38:21.771Z,38.13
2018-02-09T02:40:49.323Z,39.78
2018-02-09T02:43:17.088Z,37.47
2018-02-09T02:45:44.860Z,39.05
2018-02-09T02:48:12.328Z,46.72
2018-02-09T02:50:39.987Z,42.13
2018-02-09T02:53:07.533Z,38.25
2018-02-09T02:55:35.291Z,36.15
2018-02-09T02:58:03.064Z,38.15
2018-02-09T03:00:30.548Z,45.47
2018-02-09T03:02:58.285Z,42.17
2018-02-09T03:05:25.743Z,44.42
2018-02-09T03:07:53.511Z,56.30
2018-02-09T03:10:21.275Z,43.80
2018-02-09T03:12:48.735Z,55.05
2018-02-09T03:15:16.203Z,42.10
2018-02-09T03:17:43.667Z,46.40
2018-02-09T03:20:11.335Z,44.72
2018-02-09T03:22:38.787Z,36.92
2018-02-09T03:25:06.332Z,43.38
2018-02-09T03:27:33.988Z,51.17
2018-02-09T03:30:01.457Z,51.05
2018-02-09T03:32:29.008Z,48.20
2018-02-09T03:34:56.687Z,56.55
2018-02-09T03:37:24.231Z,50.50
2018-02-09T03:39:51.695Z,44.38
2018-02-09T03:42:19.156Z,53.05
2018-02-09T03:44:46.917Z,49.83
2018-02-09T03:47:14.432Z,40.42
2018-02-09T03:49:41.903Z,40.75
2018-02-09T03:52:09.587Z,48.80
2018-02-09T03:54:37.359Z,45.67
2018-02-09T03:57:05.120Z,46.47
2018-02-09T03:59:32.888Z,59.65
2018-02-09T04:02:00.572Z,51.20
2018-02-09T04:04:28.112Z,46.40
2018-02-09T04:06:55.579Z,46.53
2018-02-09T04:09:23.068Z,46.13
2018-02-09T04:11:50.703Z,43.50
2018-02-09T04:14:18.167Z,48.55
2018-02-09T04:16:45.699Z,51.28
2018-02-09T04:19:13.195Z,45.33
2018-02-09T04:21:41.423Z,36.53
2018-02-09T04:24:09.839Z,43.70
2018-02-09T04:26:37.389Z,44.38
2018-02-09T04:29:05.143Z,55.08
2018-02-09T04:31:32.914Z,36.60
2018-02-09T04:34:00.375Z,43.58
2018-02-09T04:36:28.135Z,45.25
2018-02-09T04:38:55.595Z,47.45
2018-02-09T04:41:23.969Z,48.72
2018-02-09T04:43:51.735Z,53.63
2018-02-09T04:46:19.500Z,39.83
2018-02-09T04:48:47.180Z,63.80
2018-02-09T04:51:14.653Z,46.97
2018-02-09T04:53:42.172Z,51.25
2018-02-09T04:56:09.655Z,44.78
2018-02-09T04:58:37.319Z,48.95
2018-02-09T05:01:04.859Z,44.28
2018-02-09T05:03:32.343Z,41.05
2018-02-09T05:06:00.094Z,44.75
2018-02-09T05:08:27.551Z,41.15
2018-02-09T05:10:55.308Z,40.53
2018-02-09T05:13:23.072Z,45.65
2018-02-09T05:15:50.560Z,44.40
2018-02-09T05:18:18.029Z,39.17
2018-02-09T05:20:45.564Z,42.90
2018-02-09T05:23:13.806Z,48.28
2018-02-09T05:25:41.271Z,44.80
2018-02-09T05:28:08.739Z,52.22
2018-02-09T05:30:36.415Z,50.55
2018-02-09T05:33:03.964Z,58.33
2018-02-09T05:35:31.651Z,67.93
2018-02-09T05:37:59.236Z,50.30
2018-02-09T05:40:26.951Z,48.33
2018-02-09T05:42:54.412Z,51.65
2018-02-09T05:45:21.885Z,55.08
2018-02-09T05:47:49.631Z,47.70
2018-02-09T05:50:17.395Z,46.60
2018-02-09T05:52:44.859Z,41.83
2018-02-09T05:55:12.395Z,50.45
2018-02-09T05:57:39.884Z,53.70
2018-02-09T06:00:08.112Z,48.95
2018-02-09T06:02:35.611Z,50.35
2018-02-09T06:05:03.137Z,50.50
2018-02-09T06:07:30.743Z,38.28
2018-02-09T06:09:58.208Z,35.08
2018-02-09T06:12:25.747Z,36.63
2018-02-09T06:14:53.208Z,45.42
2018-02-09T06:17:20.973Z,37.78
2018-02-09T06:19:48.439Z,50.60
2018-02-09T06:22:16.193Z,47.53
2018-02-09T06:24:43.655Z,44.00
2018-02-09T06:27:11.128Z,47.58
2018-02-09T06:29:38.818Z,45.35
2018-02-09T06:32:06.300Z,44.10
2018-02-09T06:34:33.764Z,48.65
2018-02-09T06:37:01.232Z,44.60
2018-02-09T06:39:28.723Z,47.40
2018-02-09T06:41:56.264Z,58.25
2018-02-09T06:44:23.841Z,46.30
2018-02-09T06:46:51.385Z,47.33
2018-02-09T06:49:19.152Z,47.72
2018-02-09T06:51:46.607Z,45.80
2018-02-09T06:54:14.372Z,61.47
2018-02-09T06:56:41.864Z,51.50
2018-02-09T06:59:09.591Z,41.45
2018-02-09T07:01:37.052Z,50.05
2018-02-09T07:04:04.820Z,43.50
2018-02-09T07:06:32.580Z,44.97
2018-02-09T07:09:00.046Z,39.83
2018-02-09T07:11:27.760Z,43.08
2018-02-09T07:13:55.229Z,49.13
2018-02-09T07:16:22.691Z,58.38
2018-02-09T07:18:50.167Z,51.15
2018-02-09T07:21:17.947Z,44.95
2018-02-09T07:23:45.475Z,45.72
2018-02-09T07:26:13.019Z,45.58
2018-02-09T07:28:40.535Z,55.38
2018-02-09T07:31:08.085Z,43.60
2018-02-09T07:33:35.804Z,50.50
2018-02-09T07:36:03.313Z,46.70
2018-02-09T07:38:31.376Z,57.60
2018-02-09T07:40:59.148Z,43.50
2018-02-09T07:43:26.667Z,51.92
2018-02-09T07:45:54.108Z,47.97
2018-02-09T07:48:21.824Z,46.50
2018-02-09T07:50:49.292Z,38.05
2018-02-09T07:53:17.017Z,35.10
2018-02-09T07:55:44.475Z,58.85
2018-02-09T07:58:12.014Z,55.80
2018-02-09T08:00:39.727Z,44.25
2018-02-09T08:03:07.200Z,51.28
2018-02-09T08:05:34.668Z,41.83
2018-02-09T08:08:02.131Z,47.80
2018-02-09T08:10:29.864Z,58.58
2018-02-09T08:12:57.628Z,42.33
2018-02-09T08:15:25.400Z,42.38
2018-02-09T08:17:53.084Z,53.80
2018-02-09T08:20:20.552Z,43.80
2018-02-09T08:22:48.077Z,40.55
2018-02-09T08:25:15.539Z,55.53
2018-02-09T08:27:43.008Z,63.78
2018-02-09T08:30:10.756Z,61.70
2018-02-09T08:32:38.436Z,55.42
2018-02-09T08:35:05.920Z,43.58
2018-02-09T08:37:33.436Z,52.92
2018-02-09T08:40:00.899Z,49.15
2018-02-09T08:42:28.663Z,44.72
2018-02-09T08:44:56.431Z,36.47
2018-02-09T08:47:24.195Z,47.97
2018-02-09T08:49:51.656Z,54.28
2018-02-09T08:52:19.236Z,43.00
2018-02-09T08:54:47.472Z,40.65
2018-02-09T08:57:14.948Z,51.35
2018-02-09T08:59:42.711Z,56.13
2018-02-09T09:02:10.409Z,50.78
2018-02-09T09:04:37.872Z,43.05
2018-02-09T09:07:05.340Z,46.30
2018-02-09T09:09:33.155Z,48.17
2018-02-09T09:12:00.943Z,51.78
2018-02-09T09:14:28.497Z,37.55
2018-02-09T09:16:57.064Z,42.17
2018-02-09T09:19:24.890Z,46.33
2018-02-09T09:21:52.503Z,53.45
2018-02-09T09:24:20.052Z,51.75
2018-02-09T09:26:47.816Z,40.80
2018-02-09T09:29:15.580Z,35.50
2018-02-09T09:31:43.048Z,45.75
2018-02-09T09:34:10.518Z,51.78
2018-02-09T09:36:38.860Z,55.25
2018-02-09T09:39:06.523Z,60.80
2018-02-09T09:41:33.984Z,48.35
2018-02-09T09:44:01.443Z,42.05
2018-02-09T09:46:29.013Z,55.88
2018-02-09T09:48:56.688Z,47.80
2018-02-09T09:51:24.208Z,49.20
2018-02-09T09:53:51.695Z,46.30
2018-02-09T09:56:19.176Z,43.87
2018-02-09T09:58:46.630Z,41.47
2018-02-09T10:01:19.836Z,55.95
2018-02-09T10:03:47.365Z,63.38
2018-02-09T10:06:15.128Z,51.90
2018-02-09T10:08:42.591Z,47.35
2018-02-09T10:11:10.357Z,44.78
2018-02-09T10:13:37.893Z,76.62
2018-02-09T10:16:05.358Z,50.35
2018-02-09T10:18:33.034Z,48.45
2018-02-09T10:21:00.795Z,43.70
2018-02-09T10:23:28.560Z,43.17
2018-02-09T10:25:56.019Z,60.92
2018-02-09T10:28:23.488Z,49.40
2018-02-09T10:30:51.252Z,63.80
2018-02-09T10:33:18.844Z,54.00
2018-02-09T10:35:46.465Z,61.75
2018-02-09T10:38:13.938Z,59.25
2018-02-09T10:40:41.700Z,49.20
2018-02-09T10:43:09.456Z,62.25
2018-02-09T10:45:37.241Z,47.75
2018-02-09T10:48:04.871Z,43.65
2018-02-09T10:50:32.352Z,45.95
2018-02-09T10:52:59.812Z,50.70
2018-02-09T10:55:27.284Z,52.42
2018-02-09T10:57:55.735Z,47.88
2018-02-09T11:03:13.932Z,49.60
2018-02-09T11:05:41.392Z,57.55
2018-02-09T11:08:08.861Z,59.85
2018-02-09T11:10:36.324Z,54.97
2018-02-09T11:13:09.488Z,57.88
2018-02-09T11:15:37.723Z,58.35
2018-02-09T11:18:05.299Z,61.60
2018-02-09T11:20:32.963Z,59.58
2018-02-09T11:23:00.424Z,49.45
2018-02-09T11:25:28.139Z,57.28
2018-02-09T11:27:55.600Z,52.40
2018-02-09T11:30:23.111Z,54.90
2018-02-09T11:32:50.564Z,54.90
2018-02-09T11:35:18.255Z,53.05
2018-02-09T11:37:45.742Z,61.92
2018-02-09T11:40:13.205Z,66.72
2018-02-09T11:42:40.683Z,58.85
2018-02-09T11:45:08.163Z,63.50
2018-02-09T11:47:35.924Z,58.75
2018-02-09T11:50:03.389Z,55.75
2018-02-09T11:52:30.848Z,55.03
2018-02-09T11:54:58.599Z,54.05
2018-02-09T11:57:26.063Z,58.30
2018-02-09T11:59:53.824Z,53.83
2018-02-09T12:02:21.291Z,57.55
2018-02-09T12:04:48.751Z,54.60
2018-02-09T12:07:16.508Z,56.58
2018-02-09T12:09:43.968Z,58.05
2018-02-09T12:12:11.732Z,52.30
2018-02-09T12:14:39.202Z,65.03
2018-02-09T12:17:06.889Z,64.60
2018-02-09T12:19:34.343Z,59.78
2018-02-09T12:22:01.803Z,66.95
2018-02-09T12:24:29.272Z,67.05
2018-02-09T12:26:56.936Z,61.72
2018-02-09T12:29:24.552Z,60.45
2018-02-09T12:31:52.076Z,56.83
2018-02-09T12:34:19.772Z,68.47
2018-02-09T12:36:47.540Z,73.53
2018-02-09T12:39:15.304Z,68.53
2018-02-09T12:41:42.763Z,50.45
2018-02-09T12:44:10.528Z,56.47
2018-02-09T12:46:38.211Z,55.53
2018-02-09T12:49:05.671Z,51.10
2018-02-09T12:51:33.207Z,56.63
2018-02-09T12:54:00.972Z,64.32
2018-02-09T12:56:28.746Z,51.78
2018-02-09T12:58:56.506Z,57.90
2018-02-09T13:01:23.964Z,54.33
2018-02-09T13:03:51.425Z,62.88
2018-02-09T13:06:19.188Z,55.28
2018-02-09T13:08:46.880Z,64.75
2018-02-09T13:11:14.408Z,59.22
2018-02-09T13:13:42.088Z,50.20
2018-02-09T13:16:09.628Z,76.57
2018-02-09T13:18:49.067Z,69.47
2018-02-09T13:21:16.537Z,56.45
2018-02-09T13:23:55.964Z,64.70
2018-02-09T13:26:23.440Z,61.88
2018-02-09T13:28:58.727Z,64.12
2018-02-09T13:31:26.479Z,64.47
2018-02-09T13:33:54.095Z,57.13
2018-02-09T13:36:33.224Z,69.80
2018-02-09T13:39:00.738Z,61.45
2018-02-09T13:41:28.159Z,56.10
2018-02-09T13:43:55.748Z,61.63
2018-02-09T13:46:23.271Z,63.10
2018-02-09T13:48:50.727Z,66.90
2018-02-09T13:51:18.275Z,62.85
2018-02-09T13:53:45.736Z,62.75
2018-02-09T13:56:13.232Z,55.03
2018-02-09T13:58:40.868Z,66.50
2018-02-09T14:01:08.323Z,57.65
2018-02-09T14:03:35.876Z,64.07
2018-02-09T14:06:03.332Z,50.45
2018-02-09T14:08:30.839Z,60.28
2018-02-09T14:10:58.292Z,55.35
2018-02-09T14:13:25.858Z,55.00
2018-02-09T14:15:53.623Z,52.35
2018-02-09T14:18:21.144Z,53.30
2018-02-09T14:20:48.609Z,61.03
2018-02-09T14:23:16.071Z,60.65
2018-02-09T14:25:43.529Z,55.85
2018-02-09T14:28:10.997Z,61.17
2018-02-09T14:30:38.456Z,57.97
2018-02-09T14:33:05.983Z,71.18
2018-02-09T14:35:33.743Z,50.72
2018-02-09T14:38:01.255Z,61.65
2018-02-09T14:40:28.817Z,60.10
2018-02-09T14:42:56.424Z,70.10
2018-02-09T14:45:24.192Z,48.97
2018-02-09T14:47:51.648Z,58.05
2018-02-09T14:50:19.147Z,55.22
2018-02-09T14:52:46.784Z,59.70
2018-02-09T14:55:14.332Z,53.33
2018-02-09T14:57:41.816Z,64.75
2018-02-09T15:00:09.560Z,55.45
2018-02-09T15:02:37.324Z,49.70
2018-02-09T15:05:04.808Z,52.62
2018-02-09T15:07:32.544Z,53.58
2018-02-09T15:10:00.006Z,53.50
2018-02-09T15:12:27.472Z,52.25
2018-02-09T15:14:54.952Z,67.22
2018-02-09T15:17:22.685Z,54.03
2018-02-09T15:19:50.444Z,57.47
2018-02-09T15:22:17.922Z,47.80
2018-02-09T15:24:45.673Z,69.37
2018-02-09T15:27:13.127Z,76.68
2018-02-09T15:29:40.588Z,53.60
2018-02-09T15:32:08.300Z,56.10
2018-02-09T15:34:35.808Z,57.35
2018-02-09T15:37:03.276Z,59.78
2018-02-09T15:39:31.031Z,64.70
2018-02-09T15:41:58.707Z,53.22
2018-02-09T15:44:26.565Z,55.42
2018-02-09T15:46:54.024Z,60.10
2018-02-09T15:49:21.480Z,65.05
2018-02-09T15:51:49.163Z,50.47
2018-02-09T15:54:16.629Z,69.62
2018-02-09T15:56:44.115Z,63.80
2018-02-09T15:59:11.580Z,55.85
2018-02-09T16:01:39.035Z,45.40
2018-02-09T16:04:06.503Z,58.28
2018-02-09T16:06:33.991Z,52.70
2018-02-09T16:09:01.668Z,62.60
2018-02-09T16:11:29.211Z,62.47
2018-02-09T16:13:56.685Z,50.08
2018-02-09T16:16:24.431Z,56.37
2018-02-09T16:18:52.199Z,45.28
2018-02-09T16:21:19.660Z,46.88
2018-02-09T16:23:47.115Z,58.85
2018-02-09T16:26:14.884Z,51.85
2018-02-09T16:28:42.343Z,57.67
2018-02-09T16:31:10.104Z,58.03
2018-02-09T16:33:37.575Z,54.47
2018-02-09T16:36:05.247Z,53.50
2018-02-09T16:38:32.733Z,48.45
2018-02-09T16:41:00.192Z,54.10
2018-02-09T16:43:27.653Z,41.63
2018-02-09T16:45:55.119Z,51.70
2018-02-09T16:48:22.613Z,49.47
2018-02-09T16:50:50.087Z,42.55
2018-02-09T16:53:17.556Z,42.40
2018-02-09T16:55:45.300Z,43.05
2018-02-09T16:58:12.983Z,49.15
2018-02-09T17:00:40.524Z,42.65
2018-02-09T17:03:08.284Z,47.78
2018-02-09T17:05:35.748Z,58.35
2018-02-09T17:08:03.515Z,59.63
2018-02-09T17:10:31.273Z,52.85
2018-02-09T17:12:58.733Z,45.75
2018-02-09T17:15:26.498Z,37.58
2018-02-09T17:17:53.957Z,53.72
2018-02-09T17:20:21.546Z,43.85
2018-02-09T17:22:49.088Z,41.50
2018-02-09T17:25:16.548Z,34.80
2018-02-09T17:27:44.223Z,51.55
2018-02-09T17:30:12.446Z,46.85
2018-02-09T17:32:39.931Z,39.45
2018-02-09T17:35:07.632Z,91.68
2018-02-09T17:37:35.157Z,63.90
2018-02-09T17:40:02.830Z,63.70
2018-02-09T17:42:30.291Z,38.30
2018-02-09T17:44:58.756Z,51.60
2018-02-09T17:47:26.440Z,46.08
2018-02-09T17:49:54.808Z,44.35
2018-02-09T17:52:22.280Z,42.70
2018-02-09T17:54:49.821Z,56.58
2018-02-09T17:57:17.538Z,39.33
2018-02-09T17:59:45.294Z,40.50
2018-02-09T18:02:12.809Z,51.70
2018-02-09T18:04:40.572Z,40.03
2018-02-09T18:07:08.335Z,46.83
2018-02-09T18:09:36.100Z,46.17
2018-02-09T18:12:03.581Z,32.03
2018-02-09T18:14:31.335Z,35.50
2018-02-09T18:16:58.861Z,30.42
2018-02-09T18:19:26.396Z,36.17
2018-02-09T18:21:54.008Z,37.20
2018-02-09T18:24:21.764Z,29.50
2018-02-09T18:26:49.328Z,35.08
2018-02-09T18:29:16.789Z,34.58
2018-02-09T18:31:44.244Z,42.75
2018-02-09T18:34:11.908Z,30.58
2018-02-09T18:36:39.368Z,24.05
2018-02-09T18:39:07.131Z,30.33
2018-02-09T18:41:34.896Z,47.03
2018-02-09T18:44:02.356Z,26.92
2018-02-09T18:46:30.120Z,27.87
2018-02-09T18:48:57.581Z,30.33
2018-02-09T18:51:25.344Z,27.33
2018-02-09T18:53:52.825Z,34.40
2018-02-09T18:56:20.568Z,36.60
2018-02-09T18:58:48.029Z,39.88
2018-02-09T19:01:15.801Z,29.65
2018-02-09T19:03:43.556Z,26.02
2018-02-09T19:06:11.315Z,35.53
2018-02-09T19:08:38.780Z,36.65
2018-02-09T19:11:06.344Z,31.00
2018-02-09T19:13:34.004Z,23.75
2018-02-09T19:16:01.680Z,24.50
2018-02-09T19:18:29.223Z,28.12
2018-02-09T19:20:56.687Z,29.30
2018-02-09T19:23:24.159Z,31.95
2018-02-09T19:25:51.799Z,44.25
2018-02-09T19:28:20.192Z,68.40
2018-02-09T19:30:47.652Z,46.40
2018-02-09T19:33:15.120Z,37.67
2018-02-09T19:35:42.651Z,25.10
2018-02-09T19:38:10.140Z,24.73
2018-02-09T19:40:37.596Z,26.70
2018-02-09T19:43:05.339Z,33.92
2018-02-09T19:45:33.149Z,26.65
2018-02-09T19:48:00.567Z,24.35
2018-02-09T19:50:28.276Z,29.58
2018-02-09T19:52:55.780Z,33.50
2018-02-09T19:55:23.240Z,29.95
2018-02-09T19:57:50.832Z,25.37
2018-02-09T20:00:19.092Z,27.67
2018-02-09T20:02:46.663Z,31.62
2018-02-09T20:05:15.223Z,33.35
2018-02-09T20:07:42.983Z,29.58
2018-02-09T20:10:10.499Z,29.98
2018-02-09T20:12:38.212Z,27.50
2018-02-09T20:15:05.980Z,24.58
2018-02-09T20:17:33.751Z,27.65
2018-02-09T20:20:01.515Z,22.37
2018-02-09T20:22:29.276Z,45.05
2018-02-09T20:24:56.944Z,23.12
2018-02-09T20:27:24.497Z,27.13
2018-02-09T20:29:51.957Z,28.02
2018-02-09T20:32:19.722Z,26.92
2018-02-09T20:34:47.487Z,26.50
2018-02-09T20:37:14.973Z,31.58
2018-02-09T20:39:42.419Z,31.15
2018-02-09T20:42:09.876Z,27.80
2018-02-09T20:44:37.627Z,26.10
2018-02-09T20:47:05.388Z,39.95
2018-02-09T20:49:32.856Z,30.10
2018-02-09T20:52:00.320Z,33.65
2018-02-09T20:54:27.787Z,41.95
2018-02-09T20:56:55.243Z,24.33
2018-02-09T20:59:22.981Z,35.72
2018-02-09T21:01:50.447Z,27.83
2018-02-09T21:04:18.140Z,25.67
2018-02-09T21:06:45.668Z,29.92
2018-02-09T21:09:13.249Z,29.77
2018-02-09T21:11:41.503Z,25.23
2018-02-09T21:14:09.284Z,28.83
2018-02-09T21:16:37.340Z,28.90
2018-02-09T21:19:05.103Z,23.62
2018-02-09T21:21:32.871Z,27.65
2018-02-09T21:24:00.631Z,31.90
2018-02-09T21:26:28.091Z,25.60
2018-02-09T21:28:55.544Z,34.45
2018-02-09T21:31:23.024Z,24.25
2018-02-09T21:33:50.588Z,26.98
2018-02-09T21:36:18.239Z,25.42
2018-02-09T21:38:45.997Z,28.48
2018-02-09T21:41:13.460Z,29.12
2018-02-09T21:43:41.220Z,27.00
2018-02-09T21:46:08.751Z,23.80
2018-02-09T21:48:36.360Z,31.58
2018-02-09T21:51:03.824Z,25.52
2018-02-09T21:53:31.664Z,25.55
2018-02-09T21:55:59.200Z,28.02
2018-02-09T21:58:26.888Z,26.60
2018-02-09T22:00:54.511Z,25.73
2018-02-09T22:03:22.109Z,20.10
2018-02-09T22:05:49.783Z,22.20
2018-02-09T22:08:17.328Z,17.17
2018-02-09T22:10:44.792Z,24.90
2018-02-09T22:13:12.561Z,28.12
2018-02-09T22:15:40.020Z,24.33
2018-02-09T22:18:07.483Z,27.83
2018-02-09T22:20:35.021Z,31.10
2018-02-09T22:23:02.691Z,20.40
2018-02-09T22:25:30.372Z,34.80
2018-02-09T22:27:57.827Z,30.40
2018-02-09T22:30:25.296Z,33.10
2018-02-09T22:32:52.831Z,19.40
2018-02-09T22:35:20.320Z,19.75
2018-02-09T22:37:48.544Z,24.58
2018-02-09T22:40:16.112Z,21.48
2018-02-09T22:42:43.576Z,20.98
2018-02-09T22:45:11.033Z,24.23
2018-02-09T22:47:38.811Z,29.37
2018-02-09T22:50:06.580Z,24.23
2018-02-09T22:52:34.066Z,30.85
2018-02-09T22:55:01.798Z,27.87
2018-02-09T22:57:29.564Z,24.80
2018-02-09T22:59:57.100Z,23.35
2018-02-09T23:02:24.783Z,26.75
2018-02-09T23:04:52.550Z,16.15
2018-02-09T23:07:20.013Z,27.55
2018-02-09T23:09:47.776Z,24.45
2018-02-09T23:12:15.236Z,22.70
2018-02-09T23:14:42.732Z,20.48
2018-02-09T23:17:10.458Z,25.52
2018-02-09T23:19:38.220Z,22.73
2018-02-09T23:22:05.904Z,26.75
2018-02-09T23:24:34.284Z,21.23
2018-02-09T23:27:02.133Z,22.15
2018-02-09T23:29:29.587Z,19.95
2018-02-09T23:31:57.347Z,18.05
2018-02-09T23:34:25.012Z,37.83
2018-02-09T23:36:52.576Z,21.30
2018-02-09T23:39:20.033Z,21.35
2018-02-09T23:41:47.735Z,26.12
2018-02-09T23:44:15.201Z,18.85
2018-02-09T23:46:42.658Z,21.25
2018-02-09T23:49:10.125Z,21.83
2018-02-09T23:51:37.584Z,31.85
2018-02-09T23:54:05.039Z,26.12
2018-02-09T23:56:32.851Z,39.08
2018-02-09T23:59:00.536Z,32.67
